sensor_id;sensor_type;location;lat;lon;timestamp;pressure;altitude;pressure_sealevel;temperature;humidity
68855;BME280;69984;-43.570;172.580;2024-02-23T00:00:21;101873.06;;;20.72;89.50
68855;BME280;69984;-43.570;172.580;2024-02-23T00:02:48;101860.31;;;20.82;89.49
68855;BME280;69984;-43.570;172.580;2024-02-23T00:05:15;101859.19;;;21.06;87.10
68855;BME280;69984;-43.570;172.580;2024-02-23T00:07:42;101848.66;;;21.48;84.93
68855;BME280;69984;-43.570;172.580;2024-02-23T00:10:09;101845.56;;;21.66;82.37
68855;BME280;69984;-43.570;172.580;2024-02-23T00:12:36;101841.03;;;21.45;84.37
68855;BME280;69984;-43.570;172.580;2024-02-23T00:15:03;101838.91;;;21.40;82.53
68855;BME280;69984;-43.570;172.580;2024-02-23T00:17:30;101832.09;;;21.17;82.97
68855;BME280;69984;-43.570;172.580;2024-02-23T00:19:57;101823.25;;;21.52;79.26
68855;BME280;69984;-43.570;172.580;2024-02-23T00:22:24;101822.03;;;21.55;76.94
68855;BME280;69984;-43.570;172.580;2024-02-23T00:24:52;101815.75;;;21.62;76.58
68855;BME280;69984;-43.570;172.580;2024-02-23T00:27:19;101804.22;;;21.40;79.08
68855;BME280;69984;-43.570;172.580;2024-02-23T00:29:46;101813.69;;;21.43;79.90
68855;BME280;69984;-43.570;172.580;2024-02-23T00:32:12;101813.78;;;21.71;76.74
68855;BME280;69984;-43.570;172.580;2024-02-23T00:34:39;101804.50;;;21.46;74.62
68855;BME280;69984;-43.570;172.580;2024-02-23T00:37:07;101794.66;;;21.67;75.58
68855;BME280;69984;-43.570;172.580;2024-02-23T00:39:34;101798.31;;;22.36;73.51
68855;BME280;69984;-43.570;172.580;2024-02-23T00:42:02;101792.13;;;22.02;70.85
68855;BME280;69984;-43.570;172.580;2024-02-23T00:44:30;101779.13;;;22.20;71.85
68855;BME280;69984;-43.570;172.580;2024-02-23T00:46:57;101781.50;;;22.42;72.53
68855;BME280;69984;-43.570;172.580;2024-02-23T00:49:27;101787.69;;;22.15;70.33
68855;BME280;69984;-43.570;172.580;2024-02-23T00:51:55;101782.78;;;22.47;70.39
68855;BME280;69984;-43.570;172.580;2024-02-23T00:54:22;101783.91;;;22.65;69.32
68855;BME280;69984;-43.570;172.580;2024-02-23T00:56:49;101780.41;;;22.30;70.33
68855;BME280;69984;-43.570;172.580;2024-02-23T00:59:16;101781.41;;;21.53;72.81
68855;BME280;69984;-43.570;172.580;2024-02-23T01:01:43;101775.50;;;21.85;71.27
68855;BME280;69984;-43.570;172.580;2024-02-23T01:04:10;101775.66;;;21.98;77.45
68855;BME280;69984;-43.570;172.580;2024-02-23T01:06:37;101781.47;;;22.36;77.10
68855;BME280;69984;-43.570;172.580;2024-02-23T01:09:04;101768.28;;;23.16;70.84
68855;BME280;69984;-43.570;172.580;2024-02-23T01:11:31;101764.22;;;23.40;68.07
68855;BME280;69984;-43.570;172.580;2024-02-23T01:13:58;101766.38;;;23.71;65.25
68855;BME280;69984;-43.570;172.580;2024-02-23T01:16:25;101763.94;;;22.61;71.04
68855;BME280;69984;-43.570;172.580;2024-02-23T01:18:52;101767.84;;;22.59;71.55
68855;BME280;69984;-43.570;172.580;2024-02-23T01:21:19;101757.31;;;22.92;69.75
68855;BME280;69984;-43.570;172.580;2024-02-23T01:23:46;101751.50;;;24.01;66.14
68855;BME280;69984;-43.570;172.580;2024-02-23T01:26:13;101749.66;;;23.75;65.49
68855;BME280;69984;-43.570;172.580;2024-02-23T01:28:40;101750.50;;;23.50;65.42
68855;BME280;69984;-43.570;172.580;2024-02-23T01:31:11;101741.41;;;24.23;65.63
68855;BME280;69984;-43.570;172.580;2024-02-23T01:33:40;101739.38;;;23.66;64.79
68855;BME280;69984;-43.570;172.580;2024-02-23T01:36:07;101732.56;;;24.16;62.30
68855;BME280;69984;-43.570;172.580;2024-02-23T01:38:34;101729.25;;;24.14;65.00
68855;BME280;69984;-43.570;172.580;2024-02-23T01:41:01;101731.69;;;24.35;61.45
68855;BME280;69984;-43.570;172.580;2024-02-23T01:43:28;101723.94;;;23.81;62.46
68855;BME280;69984;-43.570;172.580;2024-02-23T01:45:55;101723.06;;;24.84;61.11
68855;BME280;69984;-43.570;172.580;2024-02-23T01:48:23;101712.25;;;24.46;61.46
68855;BME280;69984;-43.570;172.580;2024-02-23T01:50:50;101718.47;;;24.98;59.98
68855;BME280;69984;-43.570;172.580;2024-02-23T01:53:18;101706.97;;;24.91;58.99
68855;BME280;69984;-43.570;172.580;2024-02-23T01:55:46;101705.47;;;25.82;56.43
68855;BME280;69984;-43.570;172.580;2024-02-23T01:58:14;101702.09;;;26.96;53.05
68855;BME280;69984;-43.570;172.580;2024-02-23T02:00:41;101697.38;;;25.64;54.25
68855;BME280;69984;-43.570;172.580;2024-02-23T02:03:08;101697.50;;;26.85;53.25
68855;BME280;69984;-43.570;172.580;2024-02-23T02:05:36;101690.81;;;27.58;53.20
68855;BME280;69984;-43.570;172.580;2024-02-23T02:08:04;101687.84;;;27.95;55.39
68855;BME280;69984;-43.570;172.580;2024-02-23T02:10:34;101686.56;;;27.74;57.02
68855;BME280;69984;-43.570;172.580;2024-02-23T02:13:05;101676.25;;;27.94;57.52
68855;BME280;69984;-43.570;172.580;2024-02-23T02:15:35;101674.03;;;27.91;56.13
68855;BME280;69984;-43.570;172.580;2024-02-23T02:18:02;101663.06;;;27.05;58.36
68855;BME280;69984;-43.570;172.580;2024-02-23T02:20:32;101662.06;;;26.88;61.28
68855;BME280;69984;-43.570;172.580;2024-02-23T02:23:00;101665.94;;;26.44;63.28
68855;BME280;69984;-43.570;172.580;2024-02-23T02:25:27;101654.59;;;26.42;62.59
68855;BME280;69984;-43.570;172.580;2024-02-23T02:27:54;101650.78;;;25.95;62.83
68855;BME280;69984;-43.570;172.580;2024-02-23T02:30:21;101648.38;;;26.05;64.27
68855;BME280;69984;-43.570;172.580;2024-02-23T02:32:47;101639.94;;;26.01;64.50
68855;BME280;69984;-43.570;172.580;2024-02-23T02:35:14;101638.28;;;25.64;64.28
68855;BME280;69984;-43.570;172.580;2024-02-23T02:37:42;101644.06;;;25.86;63.35
68855;BME280;69984;-43.570;172.580;2024-02-23T02:40:09;101637.72;;;26.64;61.61
68855;BME280;69984;-43.570;172.580;2024-02-23T02:42:36;101638.09;;;26.02;64.20
68855;BME280;69984;-43.570;172.580;2024-02-23T02:45:03;101637.50;;;25.07;65.48
68855;BME280;69984;-43.570;172.580;2024-02-23T02:47:30;101637.56;;;25.25;64.76
68855;BME280;69984;-43.570;172.580;2024-02-23T02:49:58;101634.78;;;25.39;63.82
68855;BME280;69984;-43.570;172.580;2024-02-23T02:52:25;101635.16;;;25.67;64.27
68855;BME280;69984;-43.570;172.580;2024-02-23T02:54:52;101635.81;;;25.38;63.94
68855;BME280;69984;-43.570;172.580;2024-02-23T02:57:19;101632.84;;;25.21;65.60
68855;BME280;69984;-43.570;172.580;2024-02-23T02:59:46;101630.72;;;25.29;65.66
68855;BME280;69984;-43.570;172.580;2024-02-23T03:02:13;101621.13;;;24.84;67.46
68855;BME280;69984;-43.570;172.580;2024-02-23T03:04:49;101619.53;;;24.83;68.61
68855;BME280;69984;-43.570;172.580;2024-02-23T03:07:17;101620.63;;;25.00;67.70
68855;BME280;69984;-43.570;172.580;2024-02-23T03:09:44;101615.97;;;25.63;66.15
68855;BME280;69984;-43.570;172.580;2024-02-23T03:12:11;101617.63;;;26.01;64.06
68855;BME280;69984;-43.570;172.580;2024-02-23T03:14:38;101611.38;;;25.89;63.78
68855;BME280;69984;-43.570;172.580;2024-02-23T03:17:09;101609.78;;;25.38;66.47
68855;BME280;69984;-43.570;172.580;2024-02-23T03:19:36;101602.41;;;25.76;62.04
68855;BME280;69984;-43.570;172.580;2024-02-23T03:22:04;101600.25;;;25.42;64.43
68855;BME280;69984;-43.570;172.580;2024-02-23T03:24:31;101591.16;;;24.62;65.96
68855;BME280;69984;-43.570;172.580;2024-02-23T03:26:58;101596.28;;;24.26;70.10
68855;BME280;69984;-43.570;172.580;2024-02-23T03:29:25;101587.16;;;24.40;69.95
68855;BME280;69984;-43.570;172.580;2024-02-23T03:31:56;101584.59;;;24.07;70.67
68855;BME280;69984;-43.570;172.580;2024-02-23T03:34:23;101576.25;;;23.77;74.28
68855;BME280;69984;-43.570;172.580;2024-02-23T03:36:50;101576.72;;;24.25;71.01
68855;BME280;69984;-43.570;172.580;2024-02-23T03:39:17;101575.47;;;24.28;72.68
68855;BME280;69984;-43.570;172.580;2024-02-23T03:41:43;101577.09;;;23.78;74.89
68855;BME280;69984;-43.570;172.580;2024-02-23T03:44:10;101577.38;;;24.08;74.38
68855;BME280;69984;-43.570;172.580;2024-02-23T03:46:37;101575.22;;;23.85;73.62
68855;BME280;69984;-43.570;172.580;2024-02-23T03:49:04;101585.38;;;23.50;75.44
68855;BME280;69984;-43.570;172.580;2024-02-23T03:51:31;101581.78;;;23.96;75.38
68855;BME280;69984;-43.570;172.580;2024-02-23T03:54:03;101571.78;;;24.22;72.15
68855;BME280;69984;-43.570;172.580;2024-02-23T03:56:29;101585.88;;;24.80;70.76
68855;BME280;69984;-43.570;172.580;2024-02-23T03:58:56;101579.34;;;24.32;68.52
68855;BME280;69984;-43.570;172.580;2024-02-23T04:01:23;101585.56;;;23.55;73.83
68855;BME280;69984;-43.570;172.580;2024-02-23T04:03:50;101583.31;;;24.61;71.61
68855;BME280;69984;-43.570;172.580;2024-02-23T04:06:17;101581.03;;;24.64;69.57
68855;BME280;69984;-43.570;172.580;2024-02-23T04:08:44;101579.53;;;24.37;70.30
68855;BME280;69984;-43.570;172.580;2024-02-23T04:11:13;101584.81;;;24.06;72.01
68855;BME280;69984;-43.570;172.580;2024-02-23T04:13:39;101577.38;;;24.14;71.53
68855;BME280;69984;-43.570;172.580;2024-02-23T04:16:06;101576.69;;;23.74;73.44
68855;BME280;69984;-43.570;172.580;2024-02-23T04:18:33;101567.19;;;23.72;72.15
68855;BME280;69984;-43.570;172.580;2024-02-23T04:21:00;101569.03;;;23.84;74.05
68855;BME280;69984;-43.570;172.580;2024-02-23T04:23:27;101571.94;;;23.76;73.34
68855;BME280;69984;-43.570;172.580;2024-02-23T04:25:54;101581.06;;;24.20;73.57
68855;BME280;69984;-43.570;172.580;2024-02-23T04:28:21;101566.97;;;24.38;71.47
68855;BME280;69984;-43.570;172.580;2024-02-23T04:30:49;101571.03;;;24.02;71.25
68855;BME280;69984;-43.570;172.580;2024-02-23T04:33:15;101571.00;;;24.15;71.96
68855;BME280;69984;-43.570;172.580;2024-02-23T04:35:42;101569.72;;;23.27;76.27
68855;BME280;69984;-43.570;172.580;2024-02-23T04:38:09;101568.91;;;23.53;74.48
68855;BME280;69984;-43.570;172.580;2024-02-23T04:40:37;101563.78;;;22.93;78.27
68855;BME280;69984;-43.570;172.580;2024-02-23T04:43:04;101565.38;;;22.07;82.43
68855;BME280;69984;-43.570;172.580;2024-02-23T04:45:31;101565.22;;;22.82;81.88
68855;BME280;69984;-43.570;172.580;2024-02-23T04:47:58;101583.09;;;23.27;78.06
68855;BME280;69984;-43.570;172.580;2024-02-23T04:50:25;101587.63;;;23.20;74.57
68855;BME280;69984;-43.570;172.580;2024-02-23T04:52:52;101585.16;;;23.58;74.55
68855;BME280;69984;-43.570;172.580;2024-02-23T04:55:19;101576.13;;;23.00;76.06
68855;BME280;69984;-43.570;172.580;2024-02-23T04:57:46;101582.19;;;21.94;82.17
68855;BME280;69984;-43.570;172.580;2024-02-23T05:00:13;101573.84;;;22.17;81.70
68855;BME280;69984;-43.570;172.580;2024-02-23T05:02:40;101568.28;;;22.72;81.34
68855;BME280;69984;-43.570;172.580;2024-02-23T05:05:07;101556.19;;;24.06;74.22
68855;BME280;69984;-43.570;172.580;2024-02-23T05:07:35;101547.13;;;24.76;68.79
68855;BME280;69984;-43.570;172.580;2024-02-23T05:10:02;101553.25;;;24.59;68.60
68855;BME280;69984;-43.570;172.580;2024-02-23T05:12:30;101549.91;;;22.43;76.69
68855;BME280;69984;-43.570;172.580;2024-02-23T05:14:57;101555.25;;;21.55;85.55
68855;BME280;69984;-43.570;172.580;2024-02-23T05:17:24;101561.25;;;21.98;87.40
68855;BME280;69984;-43.570;172.580;2024-02-23T05:19:52;101557.91;;;22.36;80.83
68855;BME280;69984;-43.570;172.580;2024-02-23T05:22:19;101554.09;;;22.05;81.71
68855;BME280;69984;-43.570;172.580;2024-02-23T05:24:45;101564.88;;;21.21;86.10
68855;BME280;69984;-43.570;172.580;2024-02-23T05:27:12;101554.41;;;20.77;91.73
68855;BME280;69984;-43.570;172.580;2024-02-23T05:29:39;101555.56;;;21.73;86.56
68855;BME280;69984;-43.570;172.580;2024-02-23T05:32:07;101549.47;;;20.74;88.68
68855;BME280;69984;-43.570;172.580;2024-02-23T05:34:34;101548.19;;;19.99;99.25
68855;BME280;69984;-43.570;172.580;2024-02-23T05:37:01;101557.97;;;20.84;97.97
68855;BME280;69984;-43.570;172.580;2024-02-23T05:39:28;101558.06;;;21.19;90.52
68855;BME280;69984;-43.570;172.580;2024-02-23T05:41:55;101558.41;;;20.67;91.79
68855;BME280;69984;-43.570;172.580;2024-02-23T05:44:23;101555.53;;;19.67;100.00
68855;BME280;69984;-43.570;172.580;2024-02-23T05:46:50;101553.78;;;19.74;100.00
68855;BME280;69984;-43.570;172.580;2024-02-23T05:49:17;101539.47;;;20.05;100.00
68855;BME280;69984;-43.570;172.580;2024-02-23T05:51:44;101523.16;;;19.34;100.00
68855;BME280;69984;-43.570;172.580;2024-02-23T05:54:11;101521.38;;;19.12;100.00
68855;BME280;69984;-43.570;172.580;2024-02-23T05:56:38;101536.81;;;18.94;100.00
68855;BME280;69984;-43.570;172.580;2024-02-23T05:59:04;101534.56;;;18.83;100.00
68855;BME280;69984;-43.570;172.580;2024-02-23T06:01:32;101536.53;;;18.89;100.00
68855;BME280;69984;-43.570;172.580;2024-02-23T06:03:59;101540.25;;;18.26;100.00
68855;BME280;69984;-43.570;172.580;2024-02-23T06:06:26;101538.09;;;17.91;100.00
68855;BME280;69984;-43.570;172.580;2024-02-23T06:08:53;101535.91;;;18.03;100.00
68855;BME280;69984;-43.570;172.580;2024-02-23T06:11:20;101536.16;;;17.77;100.00
68855;BME280;69984;-43.570;172.580;2024-02-23T06:13:47;101537.09;;;17.92;100.00
68855;BME280;69984;-43.570;172.580;2024-02-23T06:16:14;101533.78;;;18.29;100.00
68855;BME280;69984;-43.570;172.580;2024-02-23T06:18:42;101533.06;;;18.35;100.00
68855;BME280;69984;-43.570;172.580;2024-02-23T06:21:13;101525.75;;;18.37;100.00
68855;BME280;69984;-43.570;172.580;2024-02-23T06:23:41;101521.53;;;18.20;100.00
68855;BME280;69984;-43.570;172.580;2024-02-23T06:26:08;101526.22;;;18.18;100.00
68855;BME280;69984;-43.570;172.580;2024-02-23T06:28:35;101528.41;;;18.06;100.00
68855;BME280;69984;-43.570;172.580;2024-02-23T06:31:05;101531.28;;;17.96;100.00
68855;BME280;69984;-43.570;172.580;2024-02-23T06:33:32;101533.84;;;17.82;100.00
68855;BME280;69984;-43.570;172.580;2024-02-23T06:36:00;101525.59;;;17.69;100.00
68855;BME280;69984;-43.570;172.580;2024-02-23T06:38:28;101532.63;;;17.37;100.00
68855;BME280;69984;-43.570;172.580;2024-02-23T06:40:55;101513.38;;;17.60;100.00
68855;BME280;69984;-43.570;172.580;2024-02-23T06:43:22;101517.22;;;17.88;100.00
68855;BME280;69984;-43.570;172.580;2024-02-23T06:45:49;101514.53;;;17.96;100.00
68855;BME280;69984;-43.570;172.580;2024-02-23T06:48:17;101509.38;;;17.64;100.00
68855;BME280;69984;-43.570;172.580;2024-02-23T06:50:44;101513.72;;;17.57;100.00
68855;BME280;69984;-43.570;172.580;2024-02-23T06:53:11;101510.06;;;17.66;100.00
68855;BME280;69984;-43.570;172.580;2024-02-23T06:55:38;101514.22;;;17.36;100.00
68855;BME280;69984;-43.570;172.580;2024-02-23T06:58:05;101520.91;;;17.08;100.00
68855;BME280;69984;-43.570;172.580;2024-02-23T07:00:33;101531.81;;;16.64;100.00
68855;BME280;69984;-43.570;172.580;2024-02-23T07:03:00;101529.28;;;16.38;100.00
68855;BME280;69984;-43.570;172.580;2024-02-23T07:05:29;101536.91;;;16.41;100.00
68855;BME280;69984;-43.570;172.580;2024-02-23T07:07:56;101540.34;;;16.34;100.00
68855;BME280;69984;-43.570;172.580;2024-02-23T07:10:23;101548.63;;;16.31;100.00
68855;BME280;69984;-43.570;172.580;2024-02-23T07:12:51;101548.25;;;16.26;100.00
68855;BME280;69984;-43.570;172.580;2024-02-23T07:15:22;101543.97;;;16.25;100.00
68855;BME280;69984;-43.570;172.580;2024-02-23T07:17:50;101539.00;;;16.14;100.00
68855;BME280;69984;-43.570;172.580;2024-02-23T07:20:17;101524.78;;;16.23;100.00
68855;BME280;69984;-43.570;172.580;2024-02-23T07:22:45;101533.88;;;16.20;100.00
68855;BME280;69984;-43.570;172.580;2024-02-23T07:25:16;101531.19;;;16.12;100.00
68855;BME280;69984;-43.570;172.580;2024-02-23T07:27:44;101528.59;;;16.20;100.00
68855;BME280;69984;-43.570;172.580;2024-02-23T07:30:12;101538.72;;;15.91;100.00
68855;BME280;69984;-43.570;172.580;2024-02-23T07:32:39;101532.69;;;16.07;100.00
68855;BME280;69984;-43.570;172.580;2024-02-23T07:35:06;101541.47;;;15.73;100.00
68855;BME280;69984;-43.570;172.580;2024-02-23T07:37:33;101529.13;;;15.82;100.00
68855;BME280;69984;-43.570;172.580;2024-02-23T07:40:00;101548.47;;;15.82;100.00
68855;BME280;69984;-43.570;172.580;2024-02-23T07:42:29;101551.75;;;15.84;100.00
68855;BME280;69984;-43.570;172.580;2024-02-23T07:44:56;101545.13;;;15.80;100.00
68855;BME280;69984;-43.570;172.580;2024-02-23T07:47:24;101542.34;;;15.82;100.00
68855;BME280;69984;-43.570;172.580;2024-02-23T07:49:53;101542.66;;;15.79;100.00
68855;BME280;69984;-43.570;172.580;2024-02-23T07:52:20;101547.34;;;15.59;100.00
68855;BME280;69984;-43.570;172.580;2024-02-23T07:54:49;101544.09;;;15.65;100.00
68855;BME280;69984;-43.570;172.580;2024-02-23T07:57:18;101532.69;;;15.65;100.00
68855;BME280;69984;-43.570;172.580;2024-02-23T07:59:46;101533.72;;;15.80;100.00
68855;BME280;69984;-43.570;172.580;2024-02-23T08:02:14;101538.94;;;15.64;100.00
68855;BME280;69984;-43.570;172.580;2024-02-23T08:04:41;101542.47;;;15.72;100.00
68855;BME280;69984;-43.570;172.580;2024-02-23T08:07:09;101540.59;;;15.65;100.00
68855;BME280;69984;-43.570;172.580;2024-02-23T08:09:35;101550.66;;;15.61;100.00
68855;BME280;69984;-43.570;172.580;2024-02-23T08:12:03;101550.47;;;15.55;100.00
68855;BME280;69984;-43.570;172.580;2024-02-23T08:14:30;101557.59;;;15.62;100.00
68855;BME280;69984;-43.570;172.580;2024-02-23T08:16:57;101563.03;;;15.61;100.00
68855;BME280;69984;-43.570;172.580;2024-02-23T08:19:24;101562.59;;;15.73;100.00
68855;BME280;69984;-43.570;172.580;2024-02-23T08:21:51;101573.69;;;15.77;100.00
68855;BME280;69984;-43.570;172.580;2024-02-23T08:24:18;101572.66;;;15.70;100.00
68855;BME280;69984;-43.570;172.580;2024-02-23T08:26:45;101568.97;;;15.88;100.00
68855;BME280;69984;-43.570;172.580;2024-02-23T08:29:12;101553.03;;;15.72;100.00
68855;BME280;69984;-43.570;172.580;2024-02-23T08:31:39;101549.06;;;15.76;100.00
68855;BME280;69984;-43.570;172.580;2024-02-23T08:34:06;101557.50;;;15.72;100.00
68855;BME280;69984;-43.570;172.580;2024-02-23T08:36:33;101557.88;;;15.85;100.00
68855;BME280;69984;-43.570;172.580;2024-02-23T08:39:00;101554.66;;;15.65;100.00
68855;BME280;69984;-43.570;172.580;2024-02-23T08:41:26;101548.63;;;15.55;100.00
68855;BME280;69984;-43.570;172.580;2024-02-23T08:43:53;101553.66;;;15.66;100.00
68855;BME280;69984;-43.570;172.580;2024-02-23T08:46:21;101557.06;;;15.59;100.00
68855;BME280;69984;-43.570;172.580;2024-02-23T08:48:49;101554.41;;;15.51;100.00
68855;BME280;69984;-43.570;172.580;2024-02-23T08:51:16;101553.31;;;15.61;100.00
68855;BME280;69984;-43.570;172.580;2024-02-23T08:53:42;101554.53;;;15.75;100.00
68855;BME280;69984;-43.570;172.580;2024-02-23T08:56:10;101551.50;;;15.62;100.00
68855;BME280;69984;-43.570;172.580;2024-02-23T08:58:38;101548.53;;;15.65;100.00
68855;BME280;69984;-43.570;172.580;2024-02-23T09:01:04;101548.56;;;15.47;100.00
68855;BME280;69984;-43.570;172.580;2024-02-23T09:03:31;101547.72;;;15.46;100.00
68855;BME280;69984;-43.570;172.580;2024-02-23T09:06:01;101554.66;;;15.65;100.00
68855;BME280;69984;-43.570;172.580;2024-02-23T09:08:28;101550.03;;;15.67;100.00
68855;BME280;69984;-43.570;172.580;2024-02-23T09:10:55;101558.63;;;15.69;100.00
68855;BME280;69984;-43.570;172.580;2024-02-23T09:13:22;101558.94;;;15.66;100.00
68855;BME280;69984;-43.570;172.580;2024-02-23T09:15:49;101560.59;;;15.67;100.00
68855;BME280;69984;-43.570;172.580;2024-02-23T09:18:16;101558.41;;;15.63;100.00
68855;BME280;69984;-43.570;172.580;2024-02-23T09:20:42;101559.03;;;15.82;100.00
68855;BME280;69984;-43.570;172.580;2024-02-23T09:23:09;101570.00;;;15.95;100.00
68855;BME280;69984;-43.570;172.580;2024-02-23T09:25:38;101569.19;;;16.03;100.00
68855;BME280;69984;-43.570;172.580;2024-02-23T09:28:06;101561.78;;;16.07;100.00
68855;BME280;69984;-43.570;172.580;2024-02-23T09:30:32;101557.75;;;15.94;100.00
68855;BME280;69984;-43.570;172.580;2024-02-23T09:32:59;101555.47;;;15.99;100.00
68855;BME280;69984;-43.570;172.580;2024-02-23T09:35:26;101549.16;;;15.92;100.00
68855;BME280;69984;-43.570;172.580;2024-02-23T09:37:53;101546.00;;;15.89;100.00
68855;BME280;69984;-43.570;172.580;2024-02-23T09:40:20;101543.88;;;15.92;100.00
68855;BME280;69984;-43.570;172.580;2024-02-23T09:42:57;101543.53;;;15.95;100.00
68855;BME280;69984;-43.570;172.580;2024-02-23T09:45:25;101546.31;;;15.86;100.00
68855;BME280;69984;-43.570;172.580;2024-02-23T09:47:57;101548.28;;;15.84;100.00
68855;BME280;69984;-43.570;172.580;2024-02-23T09:50:25;101536.78;;;15.93;100.00
68855;BME280;69984;-43.570;172.580;2024-02-23T09:52:52;101520.72;;;15.86;100.00
68855;BME280;69984;-43.570;172.580;2024-02-23T09:55:21;101525.59;;;15.73;100.00
68855;BME280;69984;-43.570;172.580;2024-02-23T09:57:50;101518.97;;;15.69;100.00
68855;BME280;69984;-43.570;172.580;2024-02-23T10:00:21;101515.00;;;15.65;100.00
68855;BME280;69984;-43.570;172.580;2024-02-23T10:02:49;101517.16;;;15.70;100.00
68855;BME280;69984;-43.570;172.580;2024-02-23T10:05:17;101510.06;;;15.70;100.00
68855;BME280;69984;-43.570;172.580;2024-02-23T10:07:45;101510.06;;;15.70;100.00
68855;BME280;69984;-43.570;172.580;2024-02-23T10:10:12;101497.69;;;15.71;100.00
68855;BME280;69984;-43.570;172.580;2024-02-23T10:12:39;101498.97;;;15.67;100.00
68855;BME280;69984;-43.570;172.580;2024-02-23T10:15:07;101490.44;;;15.47;100.00
68855;BME280;69984;-43.570;172.580;2024-02-23T10:17:34;101483.06;;;15.51;100.00
68855;BME280;69984;-43.570;172.580;2024-02-23T10:20:01;101473.66;;;15.56;100.00
68855;BME280;69984;-43.570;172.580;2024-02-23T10:22:31;101470.03;;;15.57;100.00
68855;BME280;69984;-43.570;172.580;2024-02-23T10:24:59;101460.03;;;15.43;100.00
68855;BME280;69984;-43.570;172.580;2024-02-23T10:27:26;101473.63;;;15.48;100.00
68855;BME280;69984;-43.570;172.580;2024-02-23T10:29:53;101466.81;;;15.45;100.00
68855;BME280;69984;-43.570;172.580;2024-02-23T10:32:20;101463.84;;;15.40;100.00
68855;BME280;69984;-43.570;172.580;2024-02-23T10:34:48;101465.69;;;15.48;100.00
68855;BME280;69984;-43.570;172.580;2024-02-23T10:37:16;101464.25;;;15.54;100.00
68855;BME280;69984;-43.570;172.580;2024-02-23T10:39:46;101462.13;;;15.31;100.00
68855;BME280;69984;-43.570;172.580;2024-02-23T10:42:12;101465.59;;;15.32;100.00
68855;BME280;69984;-43.570;172.580;2024-02-23T10:44:39;101466.75;;;15.29;100.00
68855;BME280;69984;-43.570;172.580;2024-02-23T10:47:07;101452.78;;;15.45;100.00
68855;BME280;69984;-43.570;172.580;2024-02-23T10:49:35;101453.31;;;15.48;100.00
68855;BME280;69984;-43.570;172.580;2024-02-23T10:52:04;101453.59;;;15.45;100.00
68855;BME280;69984;-43.570;172.580;2024-02-23T10:54:33;101448.72;;;15.51;100.00
68855;BME280;69984;-43.570;172.580;2024-02-23T10:57:02;101461.94;;;15.59;100.00
68855;BME280;69984;-43.570;172.580;2024-02-23T10:59:29;101466.94;;;15.70;100.00
68855;BME280;69984;-43.570;172.580;2024-02-23T11:01:57;101470.78;;;15.75;100.00
68855;BME280;69984;-43.570;172.580;2024-02-23T11:04:26;101462.84;;;15.83;100.00
68855;BME280;69984;-43.570;172.580;2024-02-23T11:06:57;101469.63;;;15.78;100.00
68855;BME280;69984;-43.570;172.580;2024-02-23T11:09:25;101457.25;;;15.78;100.00
68855;BME280;69984;-43.570;172.580;2024-02-23T11:11:57;101452.13;;;15.85;100.00
68855;BME280;69984;-43.570;172.580;2024-02-23T11:14:37;101455.47;;;15.95;100.00
68855;BME280;69984;-43.570;172.580;2024-02-23T11:17:05;101458.44;;;15.92;100.00
68855;BME280;69984;-43.570;172.580;2024-02-23T11:19:39;101462.41;;;15.96;100.00
68855;BME280;69984;-43.570;172.580;2024-02-23T11:22:10;101458.28;;;15.93;100.00
68855;BME280;69984;-43.570;172.580;2024-02-23T11:24:43;101446.53;;;15.88;100.00
68855;BME280;69984;-43.570;172.580;2024-02-23T11:27:15;101443.84;;;15.80;100.00
68855;BME280;69984;-43.570;172.580;2024-02-23T11:29:47;101448.69;;;15.92;100.00
68855;BME280;69984;-43.570;172.580;2024-02-23T11:32:17;101441.09;;;15.89;100.00
68855;BME280;69984;-43.570;172.580;2024-02-23T11:34:57;101437.44;;;15.90;100.00
68855;BME280;69984;-43.570;172.580;2024-02-23T11:37:27;101439.28;;;15.98;100.00
68855;BME280;69984;-43.570;172.580;2024-02-23T11:39:55;101438.13;;;16.01;100.00
68855;BME280;69984;-43.570;172.580;2024-02-23T11:42:23;101435.00;;;16.05;100.00
68855;BME280;69984;-43.570;172.580;2024-02-23T11:44:51;101433.31;;;15.96;100.00
68855;BME280;69984;-43.570;172.580;2024-02-23T11:47:20;101431.69;;;16.03;100.00
68855;BME280;69984;-43.570;172.580;2024-02-23T11:49:47;101434.16;;;15.96;100.00
68855;BME280;69984;-43.570;172.580;2024-02-23T11:52:14;101423.09;;;15.93;100.00
68855;BME280;69984;-43.570;172.580;2024-02-23T11:54:41;101429.34;;;15.92;100.00
68855;BME280;69984;-43.570;172.580;2024-02-23T11:57:08;101429.19;;;16.02;100.00
68855;BME280;69984;-43.570;172.580;2024-02-23T11:59:35;101427.91;;;16.14;100.00
68855;BME280;69984;-43.570;172.580;2024-02-23T12:02:02;101418.47;;;16.19;100.00
68855;BME280;69984;-43.570;172.580;2024-02-23T12:04:30;101421.13;;;16.19;100.00
68855;BME280;69984;-43.570;172.580;2024-02-23T12:06:57;101421.13;;;16.11;100.00
68855;BME280;69984;-43.570;172.580;2024-02-23T12:09:23;101412.88;;;16.14;100.00
68855;BME280;69984;-43.570;172.580;2024-02-23T12:11:51;101413.19;;;16.19;100.00
68855;BME280;69984;-43.570;172.580;2024-02-23T12:14:18;101419.16;;;16.21;100.00
68855;BME280;69984;-43.570;172.580;2024-02-23T12:16:45;101420.97;;;16.29;100.00